createdAt,value
2023-02-11T00:01:36.260Z,100948.00
2023-02-11T00:04:06.169Z,100963.00
2023-02-11T00:06:35.132Z,100954.00
2023-02-11T00:09:03.430Z,100943.00
2023-02-11T00:11:30.805Z,100949.00
2023-02-11T00:14:02.165Z,100946.00
2023-02-11T00:16:29.846Z,100926.00
2023-02-11T00:18:57.121Z,100913.00
2023-02-11T00:21:26.219Z,100913.00
2023-02-11T00:23:54.850Z,100903.00
2023-02-11T00:26:25.993Z,100899.00
2023-02-11T00:28:53.624Z,100909.00
2023-02-11T00:31:23.083Z,100894.00
2023-02-11T00:33:50.744Z,100891.00
2023-02-11T00:36:29.303Z,100890.00
2023-02-11T00:38:58.520Z,100888.00
2023-02-11T00:41:26.113Z,100887.00
2023-02-11T00:43:53.290Z,100847.00
2023-02-11T00:46:21.509Z,100872.00
2023-02-11T00:48:49.070Z,100859.00
2023-02-11T00:51:16.119Z,100852.00
2023-02-11T00:53:43.501Z,100836.00
2023-02-11T00:56:10.667Z,100820.00
2023-02-11T00:58:37.877Z,100826.00
2023-02-11T01:01:05.696Z,100810.00
2023-02-11T01:03:32.579Z,100819.00
2023-02-11T01:05:59.472Z,100805.00
2023-02-11T01:08:26.844Z,100800.00
2023-02-11T01:11:03.638Z,100791.00
2023-02-11T01:13:33.075Z,100783.00
2023-02-11T01:16:00.561Z,100769.00
2023-02-11T01:18:27.739Z,100772.00
2023-02-11T01:20:54.954Z,100761.00
2023-02-11T01:23:22.245Z,100762.00
2023-02-11T01:25:49.610Z,100742.00
2023-02-11T01:28:27.592Z,100735.00
2023-02-11T01:30:55.542Z,100731.00
2023-02-11T01:33:23.628Z,100739.00
2023-02-11T01:35:51.436Z,100735.00
2023-02-11T01:38:25.826Z,100734.00
2023-02-11T01:41:00.221Z,100713.00
2023-02-11T01:43:31.257Z,100703.00
2023-02-11T01:46:38.186Z,100706.00
2023-02-11T01:49:12.697Z,100709.00
2023-02-11T01:51:50.314Z,100697.00
2023-02-11T01:54:41.096Z,100697.00
2023-02-11T01:57:23.071Z,100690.00
2023-02-11T02:00:02.722Z,100701.00
2023-02-11T02:02:52.385Z,100684.00
2023-02-11T02:05:31.132Z,100678.00
2023-02-11T02:08:11.007Z,100666.00
2023-02-11T02:10:43.059Z,100682.00
2023-02-11T02:13:10.861Z,100668.00
2023-02-11T02:15:41.607Z,100669.00
2023-02-11T02:18:19.609Z,100666.00
2023-02-11T02:21:02.875Z,100640.00
2023-02-11T02:23:39.082Z,100608.00
2023-02-11T02:26:22.261Z,100625.00
2023-02-11T02:29:09.216Z,100640.00
2023-02-11T02:32:10.900Z,100632.00
2023-02-11T02:34:49.520Z,100627.00
2023-02-11T02:37:27.881Z,100620.00
2023-02-11T02:39:59.634Z,100624.00
2023-02-11T02:42:27.173Z,100624.00
2023-02-11T02:44:56.084Z,100619.00
2023-02-11T02:47:22.907Z,100615.00
2023-02-11T02:49:50.671Z,100615.00
2023-02-11T02:52:44.061Z,100601.00
2023-02-11T02:55:25.779Z,100583.00
2023-02-11T02:58:23.660Z,100588.00
2023-02-11T03:01:18.107Z,100578.00
2023-02-11T03:04:06.121Z,100563.00
2023-02-11T03:06:35.963Z,100559.00
2023-02-11T03:09:39.915Z,100546.00
2023-02-11T03:12:09.279Z,100543.00
2023-02-11T03:14:37.675Z,100537.00
2023-02-11T03:17:08.371Z,100534.00
2023-02-11T03:19:45.629Z,100528.00
2023-02-11T03:22:22.839Z,100529.00
2023-02-11T03:24:49.959Z,100530.00
2023-02-11T03:27:35.094Z,100527.00
2023-02-11T03:30:11.054Z,100515.00
2023-02-11T03:32:52.505Z,100524.00
2023-02-11T03:35:32.734Z,100516.00
2023-02-11T03:38:17.593Z,100527.00
2023-02-11T03:40:45.667Z,100487.00
2023-02-11T03:43:26.969Z,100516.00
2023-02-11T03:45:56.296Z,100514.00
2023-02-11T03:48:31.411Z,100511.00
2023-02-11T03:51:02.924Z,100512.00
2023-02-11T03:53:29.884Z,100522.00
2023-02-11T03:56:02.499Z,100513.00
2023-02-11T03:58:29.362Z,100508.00
2023-02-11T04:00:56.400Z,100500.00
2023-02-11T04:03:23.244Z,100491.00
2023-02-11T04:05:50.357Z,100483.00
2023-02-11T04:08:17.324Z,100484.00
2023-02-11T04:10:44.116Z,100474.00
2023-02-11T04:13:11.041Z,100492.00
2023-02-11T04:15:38.175Z,100488.00
2023-02-11T04:18:05.040Z,100498.00
2023-02-11T04:20:31.882Z,100493.00
2023-02-11T04:22:58.721Z,100488.00
2023-02-11T04:25:26.242Z,100476.00
2023-02-11T04:27:53.081Z,100487.00
2023-02-11T04:30:20.100Z,100481.00
2023-02-11T04:32:46.962Z,100463.00
2023-02-11T04:35:14.336Z,100467.00
2023-02-11T04:37:41.204Z,100467.00
2023-02-11T04:40:08.989Z,100458.00
2023-02-11T04:42:35.812Z,100451.00
2023-02-11T04:45:02.928Z,100442.00
2023-02-11T04:47:29.855Z,100432.00
2023-02-11T04:49:56.714Z,100427.00
2023-02-11T04:52:23.516Z,100425.00
2023-02-11T04:54:50.428Z,100425.00
2023-02-11T04:57:17.379Z,100432.00
2023-02-11T04:59:44.501Z,100411.00
2023-02-11T05:02:11.322Z,100404.00
2023-02-11T05:04:38.187Z,100382.00
2023-02-11T05:07:05.014Z,100386.00
2023-02-11T05:09:31.833Z,100372.00
2023-02-11T05:11:58.733Z,100371.00
2023-02-11T05:14:25.613Z,100368.00
2023-02-11T05:16:52.594Z,100344.00
2023-02-11T05:19:19.438Z,100346.00
2023-02-11T05:22:01.338Z,100346.00
2023-02-11T05:24:31.017Z,100307.00
2023-02-11T05:26:57.875Z,100347.00
2023-02-11T05:29:24.731Z,100341.00
2023-02-11T05:31:51.584Z,100338.00
2023-02-11T05:34:18.539Z,100320.00
2023-02-11T05:36:45.421Z,100326.00
2023-02-11T05:39:12.415Z,100324.00
2023-02-11T05:41:39.303Z,100326.00
2023-02-11T05:44:06.233Z,100332.00
2023-02-11T05:46:33.209Z,100323.00
2023-02-11T05:49:00.499Z,100316.00
2023-02-11T05:51:27.628Z,100318.00
2023-02-11T05:53:54.836Z,100313.00
2023-02-11T05:56:21.642Z,100304.00
2023-02-11T05:58:48.477Z,100307.00
2023-02-11T06:01:15.309Z,100308.00
2023-02-11T06:03:42.227Z,100298.00
2023-02-11T06:06:12.842Z,100306.00
2023-02-11T06:08:40.182Z,100302.00
2023-02-11T06:11:07.280Z,100293.00
2023-02-11T06:13:34.515Z,100289.00
2023-02-11T06:16:03.624Z,100286.00
2023-02-11T06:18:30.705Z,100282.00
2023-02-11T06:20:57.532Z,100275.00
2023-02-11T06:23:24.446Z,100272.00
2023-02-11T06:25:52.642Z,100264.00
2023-02-11T06:28:19.933Z,100252.00
2023-02-11T06:30:46.844Z,100235.00
2023-02-11T06:33:13.717Z,100212.00
2023-02-11T06:35:40.563Z,100229.00
2023-02-11T06:38:07.473Z,100244.00
2023-02-11T06:40:34.383Z,100248.00
2023-02-11T06:43:01.262Z,100201.00
2023-02-11T06:45:28.126Z,100230.00
2023-02-11T06:47:54.999Z,100214.00
2023-02-11T06:50:22.205Z,100221.00
2023-02-11T06:52:49.140Z,100231.00
2023-02-11T06:55:15.958Z,100210.00
2023-02-11T06:57:42.882Z,100225.00
2023-02-11T07:00:10.693Z,100226.00
2023-02-11T07:02:37.615Z,100220.00
2023-02-11T07:05:07.208Z,100212.00
2023-02-11T07:07:34.556Z,100214.00
2023-02-11T07:10:03.167Z,100226.00
2023-02-11T07:12:31.041Z,100229.00
2023-02-11T07:14:58.357Z,100235.00
2023-02-11T07:17:25.322Z,100249.00
2023-02-11T07:19:52.164Z,100245.00
2023-02-11T07:22:19.092Z,100260.00
2023-02-11T07:24:45.945Z,100242.00
2023-02-11T07:27:13.028Z,100252.00
2023-02-11T07:29:42.269Z,100264.00
2023-02-11T07:32:09.163Z,100260.00
2023-02-11T07:34:36.104Z,100261.00
2023-02-11T07:37:03.180Z,100259.00
2023-02-11T07:39:30.073Z,100257.00
2023-02-11T07:41:57.147Z,100248.00
2023-02-11T07:44:24.134Z,100226.00
2023-02-11T07:46:51.076Z,100219.00
2023-02-11T07:49:17.895Z,100205.00
2023-02-11T07:51:45.852Z,100207.00
2023-02-11T07:54:12.701Z,100203.00
2023-02-11T07:56:39.566Z,100215.00
2023-02-11T07:59:06.485Z,100221.00
2023-02-11T08:01:36.079Z,100217.00
2023-02-11T08:04:04.158Z,100211.00
2023-02-11T08:06:33.890Z,100222.00
2023-02-11T08:09:07.614Z,100190.00
2023-02-11T08:11:34.670Z,100226.00
2023-02-11T08:14:01.772Z,100239.00
2023-02-11T08:16:33.014Z,100224.00
2023-02-11T08:19:04.404Z,100243.00
2023-02-11T08:21:31.399Z,100239.00
2023-02-11T08:23:58.547Z,100229.00
2023-02-11T08:26:41.010Z,100239.00
2023-02-11T08:29:11.581Z,100252.00
2023-02-11T08:31:42.744Z,100240.00
2023-02-11T08:34:11.600Z,100225.00
2023-02-11T08:36:40.045Z,100215.00
2023-02-11T08:39:20.064Z,100185.00
2023-02-11T08:41:51.867Z,100193.00
2023-02-11T08:44:20.983Z,100176.00
2023-02-11T09:00:08.770Z,100120.00
2023-02-11T09:02:35.927Z,100110.00
2023-02-11T09:05:03.266Z,100145.00
2023-02-11T09:07:30.261Z,100117.00
2023-02-11T09:09:57.233Z,100137.00
2023-02-11T09:12:24.282Z,100095.00
2023-02-11T09:14:51.416Z,100149.00
2023-02-11T09:17:18.428Z,100158.00
2023-02-11T09:19:45.479Z,100166.00
2023-02-11T09:22:12.425Z,100154.00
2023-02-11T09:24:39.419Z,100156.00
2023-02-11T09:27:06.960Z,100152.00
2023-02-11T09:29:33.977Z,100168.00
2023-02-11T09:32:01.187Z,100144.00
2023-02-11T09:34:28.317Z,100173.00
2023-02-11T09:36:55.319Z,100183.00
2023-02-11T09:39:22.455Z,100166.00
2023-02-11T09:42:39.868Z,100186.00
2023-02-11T09:45:26.459Z,100192.00
2023-02-11T09:48:07.618Z,100219.00
2023-02-11T09:50:39.874Z,100203.00
2023-02-11T09:53:25.449Z,100189.00
2023-02-11T09:56:15.910Z,100169.00
2023-02-11T09:58:45.352Z,100183.00
2023-02-11T10:01:42.109Z,100193.00
2023-02-11T10:04:59.074Z,100179.00
2023-02-11T10:07:51.704Z,100193.00
2023-02-11T10:10:27.682Z,100182.00
2023-02-11T10:13:09.576Z,100192.00
2023-02-11T10:16:10.357Z,100200.00
2023-02-11T10:18:54.663Z,100208.00
2023-02-11T10:21:47.095Z,100206.00
2023-02-11T10:24:17.624Z,100203.00
2023-02-11T10:26:46.178Z,100199.00
2023-02-11T10:29:38.654Z,100202.00
2023-02-11T10:32:31.309Z,100210.00
2023-02-11T10:35:10.305Z,100212.00
2023-02-11T10:37:37.479Z,100202.00
2023-02-11T10:40:13.030Z,100199.00
2023-02-11T10:42:46.941Z,100211.00
2023-02-11T10:45:37.844Z,100201.00
2023-02-11T10:48:26.522Z,100192.00
2023-02-11T10:51:17.652Z,100207.00
2023-02-11T10:54:13.913Z,100221.00
2023-02-11T10:57:00.177Z,100207.00
2023-02-11T10:59:40.353Z,100216.00
2023-02-11T11:02:32.026Z,100231.00
2023-02-11T11:05:20.870Z,100235.00
2023-02-11T11:07:59.827Z,100223.00
2023-02-11T11:10:44.586Z,100245.00
2023-02-11T11:13:26.394Z,100255.00
2023-02-11T11:16:34.013Z,100251.00
2023-02-11T11:19:06.946Z,100273.00
2023-02-11T11:21:55.075Z,100271.00
2023-02-11T11:24:34.474Z,100281.00
2023-02-11T11:27:05.230Z,100265.00
2023-02-11T11:29:38.024Z,100281.00
2023-02-11T11:32:33.692Z,100283.00
2023-02-11T11:35:05.980Z,100270.00
2023-02-11T11:37:37.026Z,100284.00
2023-02-11T11:40:24.725Z,100283.00
2023-02-11T11:43:14.682Z,100288.00
2023-02-11T11:46:00.060Z,100309.00
2023-02-11T11:48:40.305Z,100298.00
2023-02-11T11:51:11.810Z,100309.00
2023-02-11T11:54:00.338Z,100304.00
2023-02-11T11:56:33.790Z,100320.00
2023-02-11T11:59:13.106Z,100315.00
2023-02-11T12:01:59.788Z,100322.00
2023-02-11T12:04:45.581Z,100331.00
2023-02-11T12:07:33.114Z,100323.00
2023-02-11T12:10:15.097Z,100337.00
2023-02-11T12:13:12.455Z,100347.00
2023-02-11T12:15:52.039Z,100351.00
2023-02-11T12:18:50.197Z,100348.00
2023-02-11T12:21:41.648Z,100350.00
2023-02-11T12:24:48.153Z,100368.00
2023-02-11T12:27:42.511Z,100361.00
2023-02-11T12:30:59.465Z,100359.00
2023-02-11T12:34:00.038Z,100368.00
2023-02-11T12:36:54.465Z,100367.00
2023-02-11T12:39:36.800Z,100373.00
2023-02-11T12:42:38.703Z,100383.00
2023-02-11T12:45:12.175Z,100371.00
2023-02-11T12:48:05.367Z,100373.00
2023-02-11T12:51:09.208Z,100378.00
2023-02-11T12:54:16.024Z,100379.00
2023-02-11T12:57:12.728Z,100386.00
2023-02-11T13:00:07.008Z,100322.00
2023-02-11T13:03:14.139Z,100393.00
2023-02-11T13:05:52.954Z,100401.00
2023-02-11T13:08:28.790Z,100411.00
2023-02-11T13:11:06.074Z,100357.00
2023-02-11T13:13:57.671Z,100415.00
2023-02-11T13:16:46.288Z,100414.00
2023-02-11T13:19:13.380Z,100424.00
2023-02-11T13:22:02.592Z,100434.00
2023-02-11T13:25:18.969Z,100444.00
2023-02-11T13:28:18.583Z,100438.00
2023-02-11T13:30:47.418Z,100440.00
2023-02-11T13:33:20.793Z,100441.00
2023-02-11T13:35:56.790Z,100440.00
2023-02-11T13:38:30.340Z,100439.00
2023-02-11T13:41:37.551Z,100448.00
2023-02-11T13:44:09.184Z,100444.00
2023-02-11T13:47:02.150Z,100452.00
2023-02-11T13:49:49.380Z,100453.00
2023-02-11T13:52:34.115Z,100457.00
2023-02-11T13:55:24.044Z,100450.00
2023-02-11T13:58:14.323Z,100460.00
2023-02-11T14:00:51.065Z,100469.00
2023-02-11T14:03:53.166Z,100474.00
2023-02-11T14:07:06.897Z,100480.00
2023-02-11T14:09:39.134Z,100483.00
2023-02-11T14:12:34.463Z,100488.00
2023-02-11T14:15:23.163Z,100496.00
2023-02-11T14:17:53.593Z,100500.00
2023-02-11T14:20:40.557Z,100498.00
2023-02-11T14:23:22.016Z,100509.00
2023-02-11T14:26:07.236Z,100522.00
2023-02-11T14:28:36.438Z,100514.00
2023-02-11T14:31:14.959Z,100521.00
2023-02-11T14:34:14.773Z,100536.00
2023-02-11T14:37:23.120Z,100536.00
2023-02-11T14:40:10.039Z,100535.00
2023-02-11T14:42:38.918Z,100542.00
2023-02-11T14:45:12.195Z,100552.00
2023-02-11T14:48:08.531Z,100566.00
2023-02-11T14:50:54.905Z,100565.00
2023-02-11T14:53:26.370Z,100574.00
2023-02-11T14:55:55.972Z,100578.00
2023-02-11T14:58:30.207Z,100582.00
2023-02-11T15:00:59.094Z,100582.00
2023-02-11T15:03:27.676Z,100597.00
2023-02-11T15:06:08.230Z,100594.00
2023-02-11T15:08:38.734Z,100599.00
2023-02-11T15:11:13.998Z,100441.00
2023-02-11T15:13:47.659Z,100603.00
2023-02-11T15:16:19.820Z,100606.00
2023-02-11T15:19:07.833Z,100612.00
2023-02-11T15:21:37.021Z,100620.00
2023-02-11T15:24:21.256Z,100626.00
2023-02-11T15:27:26.939Z,100636.00
2023-02-11T15:29:55.739Z,100649.00
2023-02-11T15:32:26.727Z,100647.00
2023-02-11T15:34:57.082Z,100639.00
2023-02-11T15:37:29.692Z,100655.00
2023-02-11T15:40:25.207Z,100659.00
2023-02-11T15:43:02.805Z,100670.00
2023-02-11T15:46:07.902Z,100673.00
2023-02-11T15:48:53.413Z,100681.00
2023-02-11T15:51:29.561Z,100690.00
2023-02-11T15:54:00.965Z,100695.00
2023-02-11T15:56:44.377Z,100707.00
2023-02-11T15:59:30.872Z,100704.00
2023-02-11T16:02:20.444Z,100716.00
2023-02-11T16:05:09.725Z,100723.00
2023-02-11T16:07:46.285Z,100725.00
2023-02-11T16:10:25.199Z,100739.00
2023-02-11T16:13:00.511Z,100739.00
2023-02-11T16:15:34.176Z,100746.00
2023-02-11T16:18:19.456Z,100753.00
2023-02-11T16:20:50.969Z,100761.00
2023-02-11T16:23:26.214Z,100752.00
2023-02-11T16:26:07.186Z,100763.00
2023-02-11T16:28:36.858Z,100668.00
2023-02-11T16:31:05.799Z,100768.00
2023-02-11T16:33:33.351Z,100774.00
2023-02-11T16:36:02.363Z,100766.00
2023-02-11T16:38:32.736Z,100788.00
2023-02-11T16:40:59.909Z,100801.00
2023-02-11T16:43:27.173Z,100812.00
2023-02-11T16:45:54.470Z,100821.00
2023-02-11T16:48:21.897Z,100817.00
2023-02-11T16:50:53.325Z,100827.00
2023-02-11T16:53:25.299Z,100844.00
2023-02-11T16:55:53.554Z,100838.00
2023-02-11T16:58:20.904Z,100845.00
2023-02-11T17:00:49.135Z,100855.00
2023-02-11T17:03:29.592Z,100861.00
2023-02-11T17:05:57.335Z,100869.00
2023-02-11T17:08:24.689Z,100878.00
2023-02-11T17:10:52.062Z,100890.00
2023-02-11T17:13:19.587Z,100883.00
2023-02-11T17:15:46.785Z,100894.00
2023-02-11T17:18:14.760Z,100895.00
2023-02-11T17:20:43.102Z,100905.00
2023-02-11T17:23:10.558Z,100891.00
2023-02-11T17:25:38.548Z,100910.00
2023-02-11T17:28:08.230Z,100927.00
2023-02-11T17:30:35.722Z,100933.00
2023-02-11T17:33:03.286Z,100936.00
2023-02-11T17:35:30.306Z,100928.00
2023-02-11T17:37:58.926Z,100940.00
2023-02-11T17:40:26.601Z,100951.00
2023-02-11T17:42:53.858Z,100947.00
2023-02-11T17:45:22.348Z,100965.00
2023-02-11T17:47:49.996Z,100973.00
2023-02-11T17:50:17.552Z,100970.00
2023-02-11T17:52:45.194Z,100972.00
2023-02-11T17:55:12.777Z,100957.00
2023-02-11T17:57:39.990Z,100992.00
2023-02-11T18:00:08.819Z,101009.00
2023-02-11T18:02:36.069Z,101011.00
2023-02-11T18:05:03.170Z,101010.00
2023-02-11T18:07:30.590Z,101020.00
2023-02-11T18:09:57.839Z,101034.00
2023-02-11T18:12:28.077Z,101026.00
2023-02-11T18:14:58.016Z,101043.00
2023-02-11T18:17:26.689Z,101050.00
2023-02-11T18:19:58.073Z,101058.00
2023-02-11T18:22:25.942Z,101061.00
2023-02-11T18:24:55.329Z,101063.00
2023-02-11T18:27:23.065Z,101074.00
2023-02-11T18:29:50.669Z,101075.00
2023-02-11T18:32:17.721Z,101077.00
2023-02-11T18:34:45.119Z,101087.00
2023-02-11T18:37:14.374Z,101092.00
2023-02-11T18:39:42.335Z,101102.00
2023-02-11T18:42:10.854Z,101107.00
2023-02-11T18:44:38.120Z,101110.00
2023-02-11T18:47:05.172Z,101114.00
2023-02-11T18:49:33.102Z,101120.00
2023-02-11T18:52:00.363Z,101128.00
2023-02-11T18:54:27.503Z,101147.00
2023-02-11T18:56:54.882Z,101141.00
2023-02-11T18:59:22.138Z,101159.00
2023-02-11T19:01:49.914Z,101164.00
2023-02-11T19:04:20.304Z,101164.00
2023-02-11T19:06:51.903Z,101177.00
2023-02-11T19:09:20.991Z,101171.00
2023-02-11T19:11:51.435Z,101186.00
2023-02-11T19:14:23.992Z,101196.00
2023-02-11T19:16:55.395Z,101207.00
2023-02-11T19:19:25.833Z,101217.00
2023-02-11T19:21:53.350Z,101217.00
2023-02-11T19:24:21.733Z,101229.00
2023-02-11T19:26:50.924Z,101233.00
2023-02-11T19:29:18.871Z,101242.00
2023-02-11T19:31:46.537Z,101251.00
2023-02-11T19:34:17.364Z,101251.00
2023-02-11T19:36:44.988Z,101264.00
2023-02-11T19:39:13.012Z,101259.00
2023-02-11T19:41:40.547Z,101276.00
2023-02-11T19:44:09.560Z,101279.00
2023-02-11T19:46:41.158Z,101277.00
2023-02-11T19:49:10.258Z,101302.00
2023-02-11T19:51:39.683Z,101278.00
2023-02-11T19:54:07.619Z,101293.00
2023-02-11T19:56:34.834Z,101294.00
2023-02-11T19:59:03.683Z,101303.00
2023-02-11T20:01:30.880Z,101308.00
2023-02-11T20:03:58.107Z,101320.00
2023-02-11T20:06:30.495Z,101328.00
2023-02-11T20:09:00.976Z,101324.00
2023-02-11T20:11:33.840Z,101337.00
2023-02-11T20:14:01.430Z,101333.00
2023-02-11T20:16:47.074Z,101331.00
2023-02-11T20:19:21.756Z,101335.00
2023-02-11T20:21:53.654Z,101330.00
2023-02-11T20:24:21.628Z,101349.00
2023-02-11T20:26:49.715Z,101345.00
2023-02-11T20:29:18.560Z,101364.00
2023-02-11T20:31:46.011Z,101361.00
2023-02-11T20:34:13.949Z,101352.00
2023-02-11T20:36:41.575Z,101375.00
2023-02-11T20:39:11.303Z,101385.00
2023-02-11T20:41:40.019Z,101393.00
2023-02-11T20:44:10.562Z,101395.00
2023-02-11T20:46:42.257Z,101401.00
2023-02-11T20:49:15.711Z,101416.00
2023-02-11T20:51:43.633Z,101418.00
2023-02-11T20:54:18.002Z,101415.00
2023-02-11T20:56:48.272Z,101432.00
2023-02-11T20:59:16.898Z,101438.00
2023-02-11T21:01:48.756Z,101442.00
2023-02-11T21:04:19.876Z,101444.00
2023-02-11T21:06:50.175Z,101455.00
2023-02-11T21:09:20.654Z,101460.00
2023-02-11T21:11:49.415Z,101451.00
2023-02-11T21:14:19.064Z,101458.00
2023-02-11T21:16:47.302Z,101458.00
2023-02-11T21:19:14.649Z,101458.00
2023-02-11T21:21:42.504Z,101477.00
2023-02-11T21:24:10.737Z,101475.00
2023-02-11T21:26:39.361Z,101480.00
2023-02-11T21:29:08.704Z,101474.00
2023-02-11T21:31:36.917Z,101474.00
2023-02-11T21:34:05.392Z,101492.00
2023-02-11T21:36:32.624Z,101491.00
2023-02-11T21:39:01.808Z,101489.00
2023-02-11T21:41:29.122Z,101495.00
2023-02-11T21:43:56.649Z,101505.00
2023-02-11T21:46:23.949Z,101496.00
2023-02-11T21:48:51.360Z,101503.00
2023-02-11T21:51:23.773Z,101503.00
2023-02-11T21:54:01.363Z,101508.00
2023-02-11T21:56:33.916Z,101518.00
2023-02-11T21:59:01.269Z,101525.00
2023-02-11T22:01:32.442Z,101535.00
2023-02-11T22:04:00.205Z,101536.00
2023-02-11T22:06:33.168Z,101538.00
2023-02-11T22:09:06.203Z,101542.00
2023-02-11T22:11:33.803Z,101532.00
2023-02-11T22:14:01.041Z,101542.00
2023-02-11T22:16:29.492Z,101538.00
2023-02-11T22:18:58.600Z,101535.00
2023-02-11T22:21:26.413Z,101548.00
2023-02-11T22:23:56.128Z,101558.00
2023-02-11T22:26:26.560Z,101561.00
2023-02-11T22:28:55.036Z,101563.00
2023-02-11T22:31:27.724Z,101566.00
2023-02-11T22:33:56.197Z,101556.00
2023-02-11T22:36:30.928Z,101576.00
2023-02-11T22:39:03.609Z,101579.00
2023-02-11T22:41:31.680Z,101590.00
2023-02-11T22:43:58.955Z,101570.00
2023-02-11T22:46:26.780Z,101587.00
2023-02-11T22:48:54.359Z,101593.00
2023-02-11T22:51:25.815Z,101596.00
2023-02-11T22:53:55.814Z,101594.00
2023-02-11T22:56:24.207Z,101573.00
2023-02-11T22:58:53.292Z,101606.00
2023-02-11T23:01:20.821Z,101617.00
2023-02-11T23:03:48.208Z,101604.00
2023-02-11T23:06:15.895Z,101617.00
2023-02-11T23:08:43.925Z,101593.00
2023-02-11T23:11:20.512Z,101621.00
2023-02-11T23:13:51.072Z,101615.00
2023-02-11T23:16:23.899Z,101606.00
2023-02-11T23:18:52.489Z,101622.00
2023-02-11T23:21:32.445Z,101618.00
2023-02-11T23:24:15.105Z,101621.00
2023-02-11T23:26:44.062Z,101622.00
2023-02-11T23:29:12.065Z,101629.00
2023-02-11T23:31:43.985Z,101637.00
2023-02-11T23:34:12.112Z,101647.00
2023-02-11T23:36:39.223Z,101645.00
2023-02-11T23:39:07.424Z,101632.00
2023-02-11T23:41:34.983Z,101639.00
2023-02-11T23:44:02.219Z,101658.00
2023-02-11T23:46:29.490Z,101651.00
2023-02-11T23:48:56.642Z,101668.00
2023-02-11T23:51:24.561Z,101675.00
2023-02-11T23:53:56.044Z,101680.00
2023-02-11T23:56:27.293Z,101678.00
2023-02-11T23:58:57.747Z,101673.00
